Time;durP1;ratioP1;P1;durP2;ratioP2;P2;SDS_P1;SDS_P2;PMS_P1;PMS_P2;Temp;Humidity;BMP_temperature;BMP_pressure;BME280_temperature;BME280_humidity;BME280_pressure;Samples;Min_cycle;Max_cycle;Signal;HPM_P1;HPM_P2
2022/11/14 00:00:28;;;;;;;3.90;3.13;;;;;;;0.91;96.48;102946.34;5005179;28;20026;-73
2022/11/14 00:02:53;;;;;;;4.43;3.67;;;;;;;0.84;96.90;102944.78;5014579;28;20261;-76
2022/11/14 00:05:20;;;;;;;6.03;2.50;;;;;;;0.85;96.61;102946.50;5014208;28;20308;-75
2022/11/14 00:07:46;;;;;;;4.20;2.73;;;;;;;0.83;96.80;102962.28;5015003;28;20540;-74
2022/11/14 00:10:13;;;;;;;4.33;2.90;;;;;;;0.75;97.49;102958.19;5014841;28;20348;-74
2022/11/14 00:12:38;;;;;;;3.93;2.50;;;;;;;0.69;97.50;102951.38;5014162;28;20751;-75
2022/11/14 00:15:05;;;;;;;5.23;2.73;;;;;;;0.75;97.88;102959.06;5023589;28;20312;-74
2022/11/14 00:17:30;;;;;;;4.53;2.77;;;;;;;0.60;98.07;102942.03;5037361;28;20018;-73
2022/11/14 00:19:57;;;;;;;3.63;2.47;;;;;;;0.67;98.13;102955.81;5037411;28;20276;-74
2022/11/14 00:22:22;;;;;;;4.83;2.70;;;;;;;0.70;98.52;102947.84;5035946;28;20291;-75
2022/11/14 00:24:48;;;;;;;3.80;2.87;;;;;;;0.72;98.71;102946.03;5012924;28;20038;-75
2022/11/14 00:27:14;;;;;;;4.90;2.93;;;;;;;0.69;98.63;102950.53;5018054;28;20028;-73
2022/11/14 00:29:39;;;;;;;4.23;2.43;;;;;;;0.66;99.03;102948.84;5029719;28;20423;-71
2022/11/14 00:32:06;;;;;;;7.27;3.63;;;;;;;0.64;99.18;102947.19;4999165;28;20048;-72
2022/11/14 00:34:32;;;;;;;3.47;2.73;;;;;;;0.71;99.10;102961.81;5014213;28;20030;-76
2022/11/14 00:36:58;;;;;;;5.97;2.80;;;;;;;0.73;98.80;102958.25;5013698;28;20347;-74
2022/11/14 00:39:23;;;;;;;3.43;2.60;;;;;;;0.70;98.50;102950.47;5013463;28;20327;-73
2022/11/14 00:41:49;;;;;;;4.73;3.50;;;;;;;0.70;98.66;102947.84;5013283;28;20032;-75
2022/11/14 00:44:14;;;;;;;7.33;4.73;;;;;;;0.78;98.83;102955.47;4995359;28;20497;-76
2022/11/14 00:46:40;;;;;;;4.10;2.83;;;;;;;0.77;98.61;102948.53;5013139;28;20057;-77
2022/11/14 00:49:06;;;;;;;5.07;3.07;;;;;;;0.58;98.15;102927.25;5013075;28;20367;-76
2022/11/14 00:51:31;;;;;;;5.20;3.00;;;;;;;0.66;98.68;102951.47;5012960;28;20378;-75
2022/11/14 00:53:57;;;;;;;4.27;3.20;;;;;;;0.65;98.88;102955.00;4994367;28;20026;-75
2022/11/14 00:56:22;;;;;;;5.20;3.20;;;;;;;0.67;99.12;102958.44;5012824;28;20026;-77
2022/11/14 00:58:48;;;;;;;4.20;2.43;;;;;;;0.66;99.02;102950.63;4994895;28;20026;-74
2022/11/14 01:01:13;;;;;;;4.33;2.70;;;;;;;0.64;98.91;102949.81;5013374;28;20022;-76
2022/11/14 01:03:39;;;;;;;4.73;2.93;;;;;;;0.65;99.08;102947.13;5013450;28;20101;-76
2022/11/14 01:06:08;;;;;;;4.93;3.27;;;;;;;0.45;98.65;102916.25;5013484;28;20118;-75
2022/11/14 01:08:33;;;;;;;;;;;;;;;0.72;98.74;102951.28;5013509;28;20080;-75
2022/11/14 01:10:59;;;;;;;7.07;3.77;;;;;;;0.70;98.54;102952.22;5013149;28;20312;-74
2022/11/14 01:13:26;;;;;;;4.87;3.30;;;;;;;0.56;99.01;102942.13;5013074;28;20029;-74
2022/11/14 01:15:53;;;;;;;4.17;3.33;;;;;;;0.64;98.97;102948.03;5012737;28;20034;-75
2022/11/14 01:18:20;;;;;;;8.53;3.43;;;;;;;0.70;98.73;102958.34;5013470;28;20288;-76
2022/11/14 01:21:13;;;;;;;4.80;2.50;;;;;;;0.70;98.54;102952.22;5013779;28;20864;-74
2022/11/14 01:23:41;;;;;;;8.70;2.87;;;;;;;0.69;98.52;102954.00;5013293;28;20338;-75
2022/11/14 01:26:09;;;;;;;6.43;2.83;;;;;;;0.71;98.61;102965.31;5013423;28;20281;-75
2022/11/14 01:28:36;;;;;;;5.03;3.20;;;;;;;0.58;98.72;102937.75;5013906;28;20029;-75
2022/11/14 01:31:11;;;;;;;4.80;2.70;;;;;;;0.49;99.04;102930.97;5013797;28;20469;-75
2022/11/14 01:33:36;;;;;;;5.13;2.60;;;;;;;0.55;99.12;102949.16;5013377;28;20371;-74
2022/11/14 01:36:02;;;;;;;3.67;2.97;;;;;;;0.58;99.44;102948.22;5013445;28;20333;-74
2022/11/14 01:38:28;;;;;;;7.67;2.67;;;;;;;0.50;99.16;102937.94;5013493;28;20033;-75
2022/11/14 01:40:53;;;;;;;6.10;3.00;;;;;;;0.55;99.87;102953.53;5013379;28;20030;-73
2022/11/14 01:43:23;;;;;;;6.17;3.00;;;;;;;0.55;99.64;102948.28;4995451;28;20061;-75
2022/11/14 01:46:02;;;;;;;5.87;2.67;;;;;;;0.52;99.86;102937.88;5013673;28;20473;-75
2022/11/14 01:48:40;;;;;;;7.77;2.60;;;;;;;0.56;99.97;102947.38;5013074;28;20656;-74
2022/11/14 01:51:22;;;;;;;3.37;2.60;;;;;;;0.60;100.00;102942.03;5014730;28;20257;-73
2022/11/14 01:53:52;;;;;;;3.30;2.70;;;;;;;0.57;99.33;102933.38;5014786;28;20260;-73
2022/11/14 01:56:27;;;;;;;4.50;3.17;;;;;;;0.44;99.79;102914.53;5000311;28;20655;-74
2022/11/14 01:59:05;;;;;;;6.20;2.97;;;;;;;0.53;99.53;102931.75;5017812;28;20383;-74
2022/11/14 02:01:36;;;;;;;6.22;3.10;;;;;;;0.54;100.00;102930.84;5016596;28;20265;-74
2022/11/14 02:04:04;;;;;;;6.07;2.70;;;;;;;0.55;99.74;102943.03;5016977;28;20471;-74
2022/11/14 02:06:31;;;;;;;7.88;3.22;;;;;;;0.52;100.00;102927.41;5017225;28;20265;-74
2022/11/14 02:09:01;;;;;;;4.57;2.90;;;;;;;0.55;99.96;102936.03;5016544;28;20036;-76
2022/11/14 02:11:40;;;;;;;6.07;3.33;;;;;;;0.57;100.00;102941.22;5016938;28;20268;-75
2022/11/14 02:14:06;;;;;;;7.28;2.80;;;;;;;0.55;99.72;102933.41;5017022;28;20343;-74
2022/11/14 02:16:52;;;;;;;7.87;3.03;;;;;;;0.50;99.78;102927.44;5001864;28;20034;-74
2022/11/14 02:19:17;;;;;;;5.53;3.23;;;;;;;0.44;99.75;102926.78;5016131;28;20339;-75
2022/11/14 02:21:45;;;;;;;7.30;2.70;;;;;;;0.40;99.88;102933.00;4982796;28;20427;-77
2022/11/14 02:24:10;;;;;;;4.20;3.00;;;;;;;0.39;100.00;102931.31;5016814;28;20034;-75
2022/11/14 02:26:37;;;;;;;10.00;4.07;;;;;;;0.40;100.00;102938.25;4998846;28;20255;-73
2022/11/14 02:29:04;;;;;;;4.17;2.97;;;;;;;0.41;100.00;102940.84;5016633;28;20366;-74
2022/11/14 02:31:30;;;;;;;7.87;3.50;;;;;;;0.32;100.00;102930.63;5016873;28;20277;-74
2022/11/14 02:33:55;;;;;;;7.23;3.20;;;;;;;0.22;100.00;102914.28;5016557;28;20265;-73
2022/11/14 02:36:21;;;;;;;11.77;3.93;;;;;;;0.36;100.00;102931.38;5016424;28;20052;-75
2022/11/14 02:38:47;;;;;;;5.70;3.83;;;;;;;0.36;100.00;102934.00;5016399;28;20061;-73
2022/11/14 02:41:12;;;;;;;10.67;2.83;;;;;;;0.33;100.00;102931.47;5016390;28;20037;-77
2022/11/14 02:43:41;;;;;;;10.00;3.70;;;;;;;0.40;100.00;102944.38;5017289;28;20025;-76
2022/11/14 02:46:06;;;;;;;6.68;4.10;;;;;;;0.36;100.00;102949.75;4999548;28;20030;-75
2022/11/14 02:48:32;;;;;;;8.10;3.47;;;;;;;0.33;100.00;102926.25;5017120;28;20082;-77
2022/11/14 02:50:57;;;;;;;4.73;3.00;;;;;;;0.39;100.00;102933.91;5017927;28;20088;-77
2022/11/14 02:53:25;;;;;;;5.43;3.60;;;;;;;0.08;100.00;102878.91;5000167;28;20034;-76
2022/11/14 02:55:51;;;;;;;5.63;4.07;;;;;;;0.33;100.00;102929.72;4999111;28;20052;-75
2022/11/14 02:58:16;;;;;;;5.23;3.37;;;;;;;0.39;100.00;102931.31;5017171;28;20751;-76
2022/11/14 03:00:42;;;;;;;10.87;3.90;;;;;;;0.39;100.00;102940.03;5000030;28;20363;-75
2022/11/14 03:03:10;;;;;;;8.90;4.40;;;;;;;0.32;100.00;102924.53;5016830;28;20025;-76
2022/11/14 03:05:36;;;;;;;6.03;3.63;;;;;;;0.24;100.00;102920.34;5015127;28;20071;-76
2022/11/14 03:08:01;;;;;;;7.50;3.07;;;;;;;0.23;100.00;102926.47;5037867;28;20165;-74
2022/11/14 03:10:27;;;;;;;10.33;4.43;;;;;;;0.27;100.00;102930.72;5011271;28;20034;-77
2022/11/14 03:12:54;;;;;;;7.00;3.50;;;;;;;0.30;100.00;102935.06;5001468;28;20037;-77
2022/11/14 03:15:19;;;;;;;8.93;3.20;;;;;;;0.24;100.00;102912.47;5017827;28;20034;-77
2022/11/14 03:17:45;;;;;;;5.97;3.10;;;;;;;0.33;100.00;102926.25;5016570;28;20443;-77
2022/11/14 03:20:10;;;;;;;8.17;3.50;;;;;;;0.30;100.00;102925.44;5016881;28;20156;-76
2022/11/14 03:22:41;;;;;;;12.82;4.43;;;;;;;0.26;100.00;102921.16;5016929;28;20053;-77
2022/11/14 03:25:07;;;;;;;6.63;3.87;;;;;;;0.18;100.00;102902.16;4998352;28;20100;-78
2022/11/14 03:27:32;;;;;;;18.27;3.87;;;;;;;-0.09;100.00;102876.75;5019101;28;20256;-77
2022/11/14 03:29:58;;;;;;;14.00;5.47;;;;;;;0.11;100.00;102913.75;5020149;28;20050;-78
2022/11/14 03:32:24;;;;;;;10.90;3.70;;;;;;;0.20;100.00;102900.38;5023969;28;20113;-77
2022/11/14 03:34:49;;;;;;;10.13;3.80;;;;;;;0.13;100.00;102893.59;4998471;28;20052;-76
2022/11/14 03:37:15;;;;;;;8.17;3.90;;;;;;;0.14;100.00;102900.53;5015210;28;20025;-74
2022/11/14 03:39:40;;;;;;;8.97;4.40;;;;;;;0.06;100.00;102891.19;5015896;28;20026;-76
2022/11/14 03:42:06;;;;;;;13.80;4.47;;;;;;;0.03;100.00;102896.53;5015887;28;20030;-76
2022/11/14 03:44:31;;;;;;;9.37;3.63;;;;;;;0.01;100.00;102899.19;4998165;28;20490;-76
2022/11/14 03:46:57;;;;;;;10.73;3.90;;;;;;;-0.08;100.00;102879.31;5015338;28;20614;-75
2022/11/14 03:49:22;;;;;;;20.80;5.10;;;;;;;0.00;100.00;102892.22;5015105;28;20045;-76
2022/11/14 03:51:48;;;;;;;17.73;4.17;;;;;;;0.02;100.00;102895.66;4997306;28;20026;-79
2022/11/14 03:54:13;;;;;;;14.97;3.80;;;;;;;-0.05;100.00;102894.09;4981404;28;20425;-75
2022/11/14 03:56:39;;;;;;;24.43;4.23;;;;;;;-0.14;100.00;102884.72;5013137;28;20128;-75
2022/11/14 03:59:04;;;;;;;22.80;5.20;;;;;;;-0.08;100.00;102897.66;4997590;28;20068;-77
2022/11/14 04:01:30;;;;;;;15.87;4.77;;;;;;;-0.06;100.00;102902.84;5015384;28;20049;-77
2022/11/14 04:03:56;;;;;;;19.63;5.17;;;;;;;-0.07;100.00;102898.50;5017521;28;20022;-79
2022/11/14 04:06:21;;;;;;;18.10;4.97;;;;;;;-0.04;100.00;102901.03;5018092;28;20488;-78
2022/11/14 04:08:47;;;;;;;19.33;4.80;;;;;;;-0.02;100.00;102904.47;5015121;28;20026;-73
2022/11/14 04:11:12;;;;;;;9.00;3.87;;;;;;;-0.07;100.00;102890.66;5014687;28;20029;-74
2022/11/14 04:13:38;;;;;;;15.60;3.97;;;;;;;-0.07;100.00;102894.13;5013971;28;20120;-71
2022/11/14 04:16:04;;;;;;;13.60;5.57;;;;;;;-0.03;100.00;102897.53;5013978;28;20034;-71
2022/11/14 04:18:29;;;;;;;11.23;4.73;;;;;;;-0.03;100.00;102893.16;5012813;28;20487;-70
2022/11/14 04:20:55;;;;;;;9.40;4.07;;;;;;;-0.02;100.00;102894.00;5013501;28;20257;-69
2022/11/14 04:23:21;;;;;;;11.67;4.20;;;;;;;-0.06;100.00;102890.63;5013452;28;20045;-74
2022/11/14 04:25:46;;;;;;;11.07;3.80;;;;;;;-0.05;100.00;102892.34;5013586;28;20091;-74
2022/11/14 04:28:13;;;;;;;10.90;4.27;;;;;;;-0.06;100.00;102890.63;5014181;28;20030;-74
2022/11/14 04:30:38;;;;;;;7.17;3.53;;;;;;;-0.07;100.00;102895.91;5013937;28;20472;-73
2022/11/14 04:33:04;;;;;;;6.73;3.77;;;;;;;-0.12;100.00;102887.31;5013375;28;20248;-71
2022/11/14 04:35:29;;;;;;;14.73;4.83;;;;;;;-0.12;100.00;102892.56;4996133;28;20053;-73
2022/11/14 04:37:55;;;;;;;35.17;6.10;;;;;;;-0.12;100.00;102887.31;5030687;28;20358;-72
2022/11/14 04:40:20;;;;;;;9.33;3.90;;;;;;;-0.10;100.00;102895.97;5013847;28;20388;-74
2022/11/14 04:42:47;;;;;;;12.43;4.53;;;;;;;-0.12;100.00;102892.56;5013930;28;20030;-73
2022/11/14 04:45:12;;;;;;;10.47;4.50;;;;;;;-0.11;100.00;102891.66;5008168;28;20045;-71
2022/11/14 04:47:41;;;;;;;12.07;4.10;;;;;;;-0.14;100.00;102894.34;5037046;28;20276;-74
2022/11/14 04:50:07;;;;;;;18.63;6.05;;;;;;;-0.13;100.00;102896.94;5036795;28;20045;-72
2022/11/14 04:52:33;;;;;;;10.17;5.40;;;;;;;-0.21;100.00;102890.19;5031554;28;20440;-72
2022/11/14 04:55:01;;;;;;;18.08;5.82;;;;;;;-0.18;100.00;102903.19;4996568;28;20349;-74
2022/11/14 04:57:29;;;;;;;8.40;4.67;;;;;;;-0.19;100.00;102894.47;5013430;28;20489;-74
2022/11/14 04:59:54;;;;;;;13.13;6.00;;;;;;;-0.19;100.00;102891.00;5013427;28;20261;-74
2022/11/14 05:02:20;;;;;;;11.53;5.20;;;;;;;-0.15;100.00;102897.88;5013467;28;20080;-72
2022/11/14 05:04:47;;;;;;;12.20;5.50;;;;;;;-0.13;100.00;102901.31;5013698;28;20068;-73
2022/11/14 05:07:13;;;;;;;16.60;5.70;;;;;;;-0.18;100.00;102895.34;5014549;28;20094;-72
2022/11/14 05:09:51;;;;;;;26.00;5.53;;;;;;;-0.14;100.00;102905.69;5035107;28;20281;-72
2022/11/14 05:12:16;;;;;;;15.53;4.70;;;;;;;-0.19;100.00;102886.63;5037227;28;20252;-74
2022/11/14 05:14:42;;;;;;;17.07;5.70;;;;;;;-0.12;100.00;102903.03;5036414;28;20269;-71
2022/11/14 05:17:07;;;;;;;22.30;6.97;;;;;;;-0.20;100.00;102889.28;5022364;28;20045;-75
2022/11/14 05:19:33;;;;;;;25.30;6.33;;;;;;;-0.14;100.00;102897.84;5012110;28;20117;-74
2022/11/14 05:21:58;;;;;;;17.83;5.13;;;;;;;-0.20;100.00;102884.91;5012994;28;20536;-73
2022/11/14 05:24:26;;;;;;;17.63;5.60;;;;;;;-0.20;100.00;102890.16;5013621;28;20061;-74
2022/11/14 05:26:51;;;;;;;18.80;6.07;;;;;;;-0.18;100.00;102897.97;5013425;28;20280;-74
2022/11/14 05:29:17;;;;;;;23.97;5.53;;;;;;;-0.21;100.00;102898.03;5013289;28;20268;-75
2022/11/14 05:31:42;;;;;;;15.53;7.30;;;;;;;-0.32;100.00;102870.38;5013556;28;20080;-76
2022/11/14 05:34:08;;;;;;;14.60;5.50;;;;;;;-0.19;100.00;102891.88;5013240;28;20050;-75
2022/11/14 05:36:33;;;;;;;17.63;6.63;;;;;;;-0.13;100.00;102906.53;5013999;28;20029;-74
2022/11/14 05:38:59;;;;;;;20.60;5.07;;;;;;;-0.18;100.00;102892.72;5013879;28;20022;-75
2022/11/14 05:41:25;;;;;;;23.27;6.33;;;;;;;-0.22;100.00;102888.47;4995413;28;20022;-72
2022/11/14 05:43:50;;;;;;;19.73;5.53;;;;;;;-0.10;100.00;102906.47;4995157;28;20017;-70
2022/11/14 05:46:16;;;;;;;22.50;5.77;;;;;;;-0.07;100.00;102906.38;4995371;28;20167;-71
2022/11/14 05:48:41;;;;;;;22.83;6.93;;;;;;;-0.06;100.00;102902.84;5012812;28;20026;-75
2022/11/14 05:51:10;;;;;;;18.93;5.73;;;;;;;-0.02;100.00;102905.34;5013373;28;20029;-75
2022/11/14 05:53:36;;;;;;;;;;;;;;;0.05;100.00;102919.16;4996411;28;20041;-71
2022/11/14 05:56:03;;;;;;;25.30;8.50;;;;;;;0.01;100.00;102911.44;5013136;28;19909;-72
2022/11/14 05:58:34;;;;;;;32.10;8.17;;;;;;;0.00;100.00;102918.44;5013246;28;20060;-74
2022/11/14 06:01:11;;;;;;;16.03;5.93;;;;;;;-0.03;100.00;102910.63;5012262;28;20268;-73
2022/11/14 06:03:40;;;;;;;15.07;5.20;;;;;;;0.02;100.00;102911.38;5011988;28;20257;-74
2022/11/14 06:06:08;;;;;;;8.80;4.22;;;;;;;0.07;100.00;102919.09;5011569;28;20810;-73
2022/11/14 06:08:36;;;;;;;24.75;5.10;;;;;;;0.08;100.00;102921.69;4993845;28;20553;-73
2022/11/14 06:11:07;;;;;;;9.50;4.68;;;;;;;0.16;100.00;102913.59;5014196;28;20026;-72
2022/11/14 06:13:34;;;;;;;23.43;6.23;;;;;;;0.23;100.00;102916.00;4990439;28;20049;-73
2022/11/14 06:16:01;;;;;;;15.77;5.77;;;;;;;0.29;100.00;102913.22;5028467;28;20312;-72
2022/11/14 06:18:28;;;;;;;20.17;5.60;;;;;;;0.36;100.00;102910.44;5015609;28;20771;-72
2022/11/14 06:20:58;;;;;;;20.20;6.73;;;;;;;0.32;100.00;102893.06;4994970;28;20265;-71
2022/11/14 06:23:23;;;;;;;15.00;6.40;;;;;;;0.34;100.00;102893.88;5009243;28;20284;-73
2022/11/14 06:25:49;;;;;;;21.90;6.07;;;;;;;0.41;100.00;102900.66;5032367;28;20634;-72
2022/11/14 06:28:14;;;;;;;25.73;6.03;;;;;;;0.38;100.00;102898.13;5032744;28;20573;-72
2022/11/14 06:30:40;;;;;;;20.93;7.00;;;;;;;0.38;100.00;102896.38;5032912;28;20431;-72
2022/11/14 06:33:06;;;;;;;10.87;5.83;;;;;;;0.47;100.00;102903.94;5032190;28;20036;-72
2022/11/14 06:35:32;;;;;;;12.03;5.90;;;;;;;0.50;100.00;102908.25;5032020;28;20362;-74
2022/11/14 06:37:59;;;;;;;19.37;6.57;;;;;;;0.52;100.00;102909.91;5032050;28;20079;-72
2022/11/14 06:40:24;;;;;;;15.27;4.97;;;;;;;0.50;100.00;102898.63;5032250;28;20260;-73
2022/11/14 06:42:50;;;;;;;18.27;6.27;;;;;;;0.50;100.00;102903.00;5051338;28;20659;-73
2022/11/14 06:45:15;;;;;;;13.00;5.50;;;;;;;0.52;100.00;102894.19;5036398;28;20091;-72
2022/11/14 06:47:41;;;;;;;12.57;5.20;;;;;;;0.58;100.00;102901.88;5036671;28;20029;-73
2022/11/14 06:50:07;;;;;;;20.40;5.70;;;;;;;0.59;100.00;102898.34;5035892;28;20148;-75
2022/11/14 06:52:33;;;;;;;22.87;6.03;;;;;;;0.66;100.00;102899.03;5035820;28;20030;-72
2022/11/14 06:54:58;;;;;;;23.87;6.97;;;;;;;0.68;100.00;102899.84;5035319;28;20262;-73
2022/11/14 06:57:24;;;;;;;22.07;8.00;;;;;;;0.65;100.00;102892.06;5036991;28;20029;-73
2022/11/14 06:59:49;;;;;;;22.87;7.37;;;;;;;0.61;100.00;102874.72;5038823;28;20025;-72
2022/11/14 07:02:15;;;;;;;26.23;7.20;;;;;;;0.73;100.00;102887.44;5035687;28;20354;-71
2022/11/14 07:04:40;;;;;;;16.93;6.70;;;;;;;0.80;100.00;102902.06;5017783;28;20025;-71
2022/11/14 07:07:06;;;;;;;20.73;6.77;;;;;;;0.74;100.00;102891.78;5035445;28;20022;-72
2022/11/14 07:09:34;;;;;;;19.40;5.57;;;;;;;0.79;100.00;102900.34;5034049;28;20420;-74
2022/11/14 07:12:03;;;;;;;16.45;5.80;;;;;;;0.82;100.00;102895.00;5017445;28;20021;-73
2022/11/14 07:14:28;;;;;;;20.63;6.13;;;;;;;0.89;100.00;102907.03;5017259;28;20030;-72
2022/11/14 07:16:54;;;;;;;18.30;6.33;;;;;;;0.91;100.00;102905.22;5035045;28;20551;-73
2022/11/14 07:19:22;;;;;;;16.20;5.63;;;;;;;0.86;100.00;102896.63;5034986;28;20033;-72
2022/11/14 07:21:48;;;;;;;15.65;7.40;;;;;;;0.87;100.00;102890.50;5033058;28;20026;-74
2022/11/14 07:24:15;;;;;;;16.30;5.77;;;;;;;0.97;100.00;102914.66;5015012;28;20076;-72
2022/11/14 07:26:41;;;;;;;19.90;7.70;;;;;;;0.88;100.00;102900.09;5015298;28;20033;-75
2022/11/14 07:29:09;;;;;;;7.07;3.90;;;;;;;1.04;100.00;102910.94;5015096;28;20678;-72
2022/11/14 07:31:35;;;;;;;10.07;4.45;;;;;;;1.06;100.00;102924.00;4997849;28;20059;-73
2022/11/14 07:34:00;;;;;;;6.97;3.53;;;;;;;1.08;100.00;102919.56;5014651;28;20116;-73
2022/11/14 07:36:26;;;;;;;11.30;3.93;;;;;;;1.05;100.00;102901.28;5014519;28;20026;-72
2022/11/14 07:38:51;;;;;;;13.23;4.30;;;;;;;1.15;100.00;102921.06;5014245;28;20034;-74
2022/11/14 07:41:17;;;;;;;11.40;5.43;;;;;;;1.17;100.00;102922.78;5014079;28;20022;-74
2022/11/14 07:43:43;;;;;;;6.87;4.60;;;;;;;1.14;100.00;102907.09;5014357;28;20033;-71
2022/11/14 07:46:18;;;;;;;7.70;3.63;;;;;;;1.21;100.00;102923.53;5029696;28;20425;-74
2022/11/14 07:48:44;;;;;;;9.43;4.50;;;;;;;1.26;100.00;102918.97;5014402;28;20108;-74
2022/11/14 07:51:14;;;;;;;14.70;4.70;;;;;;;1.29;100.00;102916.25;5014176;28;20268;-73
2022/11/14 07:53:40;;;;;;;26.23;5.27;;;;;;;1.31;100.00;102921.44;4996583;28;20267;-76
2022/11/14 07:56:08;;;;;;;11.23;4.83;;;;;;;1.29;100.00;102910.16;5014463;28;20257;-73
2022/11/14 07:58:35;;;;;;;13.52;5.15;;;;;;;1.31;100.00;102903.06;5014666;28;20034;-74
2022/11/14 08:01:03;;;;;;;10.40;4.73;;;;;;;1.35;99.96;102908.16;5014408;28;20529;-73
2022/11/14 08:03:28;;;;;;;13.80;5.07;;;;;;;1.43;100.00;102916.63;5014094;28;20245;-72
2022/11/14 08:06:04;;;;;;;9.97;5.37;;;;;;;1.47;100.00;102913.03;5014078;28;20261;-71
2022/11/14 08:08:30;;;;;;;21.53;4.87;;;;;;;1.44;99.69;102910.47;5013936;28;20033;-75
2022/11/14 08:10:59;;;;;;;8.17;4.60;;;;;;;1.46;100.00;102898.19;5013964;28;20280;-74
2022/11/14 08:13:26;;;;;;;14.63;5.33;;;;;;;1.62;99.89;102909.00;5013990;28;20029;-72
2022/11/14 08:15:52;;;;;;;10.47;4.87;;;;;;;1.77;98.90;102910.25;5013856;28;20256;-73
2022/11/14 08:18:18;;;;;;;9.40;4.43;;;;;;;1.78;98.10;102910.22;5014628;28;20844;-72
2022/11/14 08:20:43;;;;;;;6.67;3.93;;;;;;;1.78;97.68;102909.34;5028792;28;20268;-73
2022/11/14 08:23:11;;;;;;;10.33;4.20;;;;;;;1.73;97.34;102916.50;5013584;28;20054;-73
2022/11/14 08:25:39;;;;;;;15.70;4.70;;;;;;;1.70;97.78;102900.84;5013976;28;20095;-73
2022/11/14 08:28:08;;;;;;;7.70;4.73;;;;;;;1.65;97.31;102882.63;5013572;28;20794;-71
2022/11/14 08:30:34;;;;;;;6.70;4.20;;;;;;;1.99;97.73;102918.22;5013584;28;20276;-72
2022/11/14 08:33:04;;;;;;;6.57;4.00;;;;;;;2.08;97.67;102918.78;5013404;28;20033;-72
2022/11/14 08:35:30;;;;;;;9.23;4.60;;;;;;;2.15;97.05;102925.53;5013684;28;20454;-74
2022/11/14 08:37:55;;;;;;;14.27;3.87;;;;;;;2.18;95.93;102914.88;5013328;28;20291;-73
2022/11/14 08:40:21;;;;;;;13.83;5.13;;;;;;;2.27;95.75;102918.94;5013731;28;20080;-73
2022/11/14 08:42:46;;;;;;;10.60;4.23;;;;;;;2.31;94.13;102930.19;5014279;28;20022;-74
2022/11/14 08:45:12;;;;;;;12.90;4.33;;;;;;;2.28;93.41;102928.53;5012389;28;20021;-72
2022/11/14 08:47:37;;;;;;;9.47;4.50;;;;;;;2.31;93.56;102924.94;5015378;28;20057;-72
2022/11/14 08:50:05;;;;;;;7.10;3.20;;;;;;;2.26;92.65;102906.72;5021187;28;20053;-72
2022/11/14 08:52:32;;;;;;;9.33;4.90;;;;;;;2.31;92.06;102909.16;5013465;28;20273;-72
2022/11/14 08:54:58;;;;;;;11.10;3.20;;;;;;;2.46;91.80;102917.34;5013263;28;20056;-74
2022/11/14 08:57:24;;;;;;;3.33;2.87;;;;;;;2.55;90.42;102913.50;5013114;28;20624;-74
2022/11/14 08:59:49;;;;;;;12.83;3.77;;;;;;;2.65;90.96;102906.16;4995514;28;20033;-74
2022/11/14 09:02:15;;;;;;;7.40;4.40;;;;;;;2.76;89.10;102911.84;5012781;28;20065;-72
2022/11/14 09:04:41;;;;;;;8.63;2.70;;;;;;;2.59;88.41;102888.78;5012758;28;20026;-72
2022/11/14 09:07:07;;;;;;;4.17;2.43;;;;;;;2.79;87.98;102902.03;5013292;28;20026;-72
2022/11/14 09:09:32;;;;;;;6.37;3.00;;;;;;;2.85;87.32;102894.81;5013482;28;20119;-74
2022/11/14 09:11:58;;;;;;;4.27;2.50;;;;;;;2.88;86.95;102903.44;5013282;28;20727;-73
2022/11/14 09:14:23;;;;;;;7.63;3.27;;;;;;;2.87;87.33;102899.09;4995494;28;20069;-73
2022/11/14 09:16:49;;;;;;;3.67;3.13;;;;;;;2.94;86.40;102899.75;5013225;28;20053;-73
2022/11/14 09:19:15;;;;;;;3.77;2.80;;;;;;;2.97;86.06;102894.34;4995554;28;20021;-75
2022/11/14 09:21:42;;;;;;;6.67;3.43;;;;;;;3.04;86.75;102890.53;5012998;28;20160;-73
2022/11/14 09:24:08;;;;;;;9.77;3.83;;;;;;;3.06;86.45;102886.94;5012969;28;20037;-74
2022/11/14 09:26:34;;;;;;;6.87;3.43;;;;;;;3.05;86.71;102882.59;5012807;28;20272;-73
2022/11/14 09:29:01;;;;;;;5.83;3.43;;;;;;;2.97;86.55;102873.28;5012328;28;20286;-75
2022/11/14 09:31:26;;;;;;;3.73;2.87;;;;;;;2.71;86.76;102819.94;5012442;28;20040;-73
2022/11/14 09:33:52;;;;;;;7.33;3.00;;;;;;;3.12;86.79;102872.66;5012462;28;20253;-73
2022/11/14 09:36:18;;;;;;;4.77;2.47;;;;;;;3.19;86.08;102868.88;5012371;28;20030;-73
2022/11/14 09:38:45;;;;;;;7.80;4.20;;;;;;;3.18;85.12;102876.81;5012304;28;20121;-74
2022/11/14 09:42:01;;;;;;;9.57;3.33;;;;;;;3.06;85.97;102867.66;5012517;28;20260;-74
2022/11/14 09:44:56;;;;;;;5.27;2.80;;;;;;;3.02;86.87;102868.69;4954890;28;20270;-73
2022/11/14 09:47:32;;;;;;;10.37;3.73;;;;;;;3.15;86.10;102867.25;4958738;28;20413;-73
2022/11/14 09:50:09;;;;;;;6.23;3.80;;;;;;;3.27;86.17;102856.22;5001493;28;20264;-75
2022/11/14 09:52:46;;;;;;;7.37;3.93;;;;;;;3.32;85.15;102848.13;5012131;28;20272;-74
2022/11/14 09:55:41;;;;;;;6.80;4.60;;;;;;;3.50;85.25;102852.63;5012448;28;20596;-72
2022/11/14 09:58:14;;;;;;;6.47;3.57;;;;;;;3.55;84.59;102850.66;4982390;28;20292;-75
2022/11/14 10:00:52;;;;;;;5.47;3.60;;;;;;;3.62;84.41;102857.34;4994537;28;20783;-75
2022/11/14 10:03:43;;;;;;;6.57;2.83;;;;;;;3.68;84.18;102845.69;5012530;28;20249;-73
2022/11/14 10:06:25;;;;;;;9.03;3.37;;;;;;;3.63;83.83;102845.88;5012503;28;20269;-75
2022/11/14 10:08:53;;;;;;;10.63;3.67;;;;;;;3.60;84.15;102845.16;5012804;28;20675;-75
2022/11/14 10:11:43;;;;;;;9.13;3.22;;;;;;;3.52;84.31;102811.25;5012329;28;20252;-73
2022/11/14 10:14:36;;;;;;;7.20;3.97;;;;;;;3.65;84.22;102824.75;5012618;28;20026;-73
2022/11/14 10:17:20;;;;;;;9.30;3.00;;;;;;;3.60;84.72;102832.84;5015454;28;20350;-74
2022/11/14 10:19:58;;;;;;;5.53;4.13;;;;;;;3.65;84.86;102814.19;5017131;28;20261;-75
2022/11/14 10:22:50;;;;;;;4.80;3.17;;;;;;;3.70;84.48;102820.13;5016939;28;20289;-74
2022/11/14 10:25:18;;;;;;;5.10;3.60;;;;;;;3.66;84.80;102805.38;4989841;28;20727;-74
2022/11/14 10:28:00;;;;;;;5.85;3.28;;;;;;;3.74;85.42;102800.59;5016229;28;20761;-74
2022/11/14 10:30:39;;;;;;;6.13;3.50;;;;;;;3.72;84.99;102797.19;5016297;28;20036;-74
2022/11/14 10:33:29;;;;;;;8.73;3.50;;;;;;;3.73;85.31;102801.53;4998461;28;20338;-73
2022/11/14 10:36:24;;;;;;;6.57;3.70;;;;;;;3.74;85.40;102784.78;5015823;28;20608;-73
2022/11/14 10:39:00;;;;;;;8.23;5.17;;;;;;;3.84;85.30;102786.09;4990003;28;20288;-73
2022/11/14 10:41:28;;;;;;;7.87;3.60;;;;;;;3.90;85.59;102793.72;5015674;28;20349;-74
2022/11/14 10:43:54;;;;;;;7.63;3.43;;;;;;;3.83;84.99;102758.03;5015419;28;20311;-73
2022/11/14 10:46:32;;;;;;;4.80;4.27;;;;;;;4.02;84.30;102781.75;5015160;28;20268;-74
2022/11/14 10:48:58;;;;;;;7.78;3.72;;;;;;;4.06;84.27;102787.78;5015184;28;20308;-74
2022/11/14 10:51:32;;;;;;;8.63;5.60;;;;;;;4.01;84.01;102778.25;5015077;28;20057;-73
2022/11/14 10:54:04;;;;;;;3.77;3.47;;;;;;;3.94;84.84;102773.34;5015150;28;20551;-73
2022/11/14 10:56:30;;;;;;;6.60;4.20;;;;;;;3.98;84.31;102778.41;5015180;28;20340;-74
2022/11/14 10:58:55;;;;;;;9.63;3.13;;;;;;;3.98;84.78;102781.03;5014794;28;20388;-75
2022/11/14 11:01:39;;;;;;;8.37;4.47;;;;;;;3.95;85.32;102773.28;5014840;28;20022;-73
2022/11/14 11:04:31;;;;;;;4.27;3.37;;;;;;;3.95;85.49;102775.91;5014944;28;20030;-73
2022/11/14 11:12:49;;;;;;;7.67;3.73;;;;;;;3.88;85.42;102763.94;5014994;28;20348;-72
2022/11/14 11:15:17;;;;;;;7.32;3.55;;;;;;;3.87;85.13;102764.88;5014697;28;20352;-73
2022/11/14 11:17:55;;;;;;;4.87;3.30;;;;;;;3.93;85.35;102756.69;5014491;28;20493;-74
2022/11/14 11:20:40;;;;;;;10.55;3.58;;;;;;;3.96;85.39;102748.63;5014753;28;20811;-74
2022/11/14 11:23:09;;;;;;;9.00;3.77;;;;;;;3.94;84.82;102761.03;5014367;28;20049;-74
2022/11/14 11:25:36;;;;;;;5.45;3.65;;;;;;;3.79;84.95;102747.72;4997024;28;20280;-75
2022/11/14 11:28:15;;;;;;;9.80;4.03;;;;;;;3.82;84.99;102747.56;5014745;28;20450;-74
2022/11/14 11:30:54;;;;;;;10.37;4.13;;;;;;;3.87;86.04;102741.16;5014056;28;20268;-73
2022/11/14 11:33:19;;;;;;;;;;;;;;;4.03;85.89;102749.19;4997480;28;20253;-74
2022/11/14 11:35:48;;;;;;;9.23;3.70;;;;;;;3.99;84.08;102742.34;5014254;28;20008;-73